CG Stratton — NHTC — position and weather

sailwx.info

Track history (hours):
 
Tides and Currents Weather Stations Pressure Air Temp Water Temp Dewpoint Dewpoint Depression Visibility Wind Speed Wind Dir Waves Ship Positions

CG Stratton

Last reported at 2018-Feb-08 02:00 UTC. Time now 2018-Feb-22 17:12 UTC.
Position N 32°47' W 117°29'.
Warning: this ship's position is 14 days out of date.

Length 140 m; draft 6.8 m.

Type: Law enforcement. MMSI: 368798000.

Date/timePositionNaut miles runAvg speedWind from/ knotsBaromVisibWave heightAir tempDewpointWater temp
2018-Feb-08 02:00N 32°47' W 117°29'510.8
2018-Feb-08 01:31N 32°42' W 117°32'4 7.4
2018-Feb-08 01:00N 32°39' W 117°29'2 3.8
2018-Feb-08 00:30N 32°39' W 117°27'1 1.0
2018-Feb-08 00:00N 32°39' W 117°27'0 0.9
2018-Feb-07 23:30N 32°40' W 117°27'0 0.8
2018-Feb-07 23:00N 32°40' W 117°27'3 6.9
2018-Feb-07 22:31N 32°39' W 117°31'1121.1
2018-Feb-07 22:00N 32°40' W 117°44'1020.8
2018-Feb-07 21:31N 32°41' W 117°56'12 1.0
2018-Feb-07 09:29N 32°48' W 118°08'2 4.1
2018-Feb-07 09:00N 32°50' W 118°08'2 4.9
2018-Feb-07 08:30N 32°52' W 118°07'611.9
2018-Feb-07 08:00N 32°58' W 118°05'815.9
2018-Feb-07 07:31N 33°06' W 118°04'1615.6
2018-Feb-07 06:30N 33°21' W 118°10'814.5
2018-Feb-07 05:59N 33°28' W 118°11'4 6.6
2018-Feb-07 05:25N 33°31' W 118°13'717.0
2018-Feb-07 05:00N 33°32' W 118°21'815.7
2018-Feb-07 04:30N 33°34' W 118°30'4 8.4
2018-Feb-07 03:59N 33°37' W 118°34'4 9.0
2018-Feb-07 03:30N 33°38' W 118°39'4 9.2
2018-Feb-07 03:00N 33°41' W 118°44'3 5.5
2018-Feb-07 02:30N 33°39' W 118°41'611.2
2018-Feb-07 01:58N 33°38' W 118°34'511.1
2018-Feb-07 01:29N 33°36' W 118°28'4 7.6
2018-Feb-07 00:57N 33°35' W 118°23'3 5.6
2018-Feb-07 00:29N 33°34' W 118°21'3 5.8
2018-Feb-06 23:59N 33°33' W 118°17'1 2.3
2018-Feb-06 23:29N 33°33' W 118°19'1 1.5
2018-Feb-06 23:00N 33°34' W 118°18'2 2.9
2018-Feb-06 22:25N 33°32' W 118°18'1 2.2
2018-Feb-06 22:00N 33°31' W 118°18'610.6
2018-Feb-06 21:28N 33°35' W 118°23'1021.3
2018-Feb-06 21:00N 33°38' W 118°35'1021.0
2018-Feb-06 20:30N 33°42' W 118°46'1021.0
2018-Feb-06 20:00N 33°47' W 118°57'1019.4
2018-Feb-06 19:30N 33°52' W 119°07'3 5.7
2018-Feb-06 19:00N 33°54' W 119°04'2 1.4
2018-Feb-06 17:30N 33°53' W 119°07'1 2.3
2018-Feb-06 17:00N 33°54' W 119°07'7 7.3
2018-Feb-06 16:00N 33°60' W 119°13'815.9
2018-Feb-06 15:30N 34°02' W 119°22'816.3
2018-Feb-06 15:00N 34°05' W 119°31'816.0
2018-Feb-06 14:30N 34°07' W 119°41'816.4
2018-Feb-06 14:00N 34°09' W 119°50'713.0
2018-Feb-06 13:28N 34°12' W 119°57'611.9
2018-Feb-06 13:00N 34°14' W 120°04'612.8
2018-Feb-06 12:30N 34°16' W 120°11'612.7
2018-Feb-06 11:59N 34°17' W 120°19'612.9
2018-Feb-06 11:29N 34°19' W 120°26'713.2
2018-Feb-06 10:58N 34°20' W 120°35'712.9
2018-Feb-06 10:28N 34°22' W 120°42'612.5
2018-Feb-06 09:58N 34°23' W 120°50'511.3
2018-Feb-06 09:30N 34°25' W 120°55'815.5
2018-Feb-06 09:00N 34°31' W 121°02'815.8
2018-Feb-06 08:30N 34°37' W 121°07'1615.8
2018-Feb-06 07:30N 34°51' W 121°18'816.0
2018-Feb-06 07:00N 34°57' W 121°23'15417.4
2018-Feb-05 22:11N 37°12' W 122°55'1 5.8
2018-Feb-05 22:00N 37°11' W 122°55'2214.7
2018-Feb-05 20:30N 37°31' W 122°44'2610.5
2018-Feb-05 18:00N 37°47' W 122°18'2 4.2
2018-Feb-05 17:30N 37°47' W 122°15'0 0.7
2018-Feb-05 17:00N 37°47' W 122°15'0 0.0
2018-Feb-05 16:30N 37°47' W 122°15'0 0.0
2018-Feb-05 15:54N 37°47' W 122°15'0 0.0
2018-Feb-05 15:30N 37°47' W 122°15'0 0.0
2018-Feb-05 15:00N 37°47' W 122°15'0 0.0
2018-Feb-05 14:30N 37°47' W 122°15'0 0.0
2018-Feb-05 14:00N 37°47' W 122°15'0 0.0
2018-Feb-05 13:30N 37°47' W 122°15'0 0.0
2018-Feb-05 13:00N 37°47' W 122°15'0 0.0
2018-Feb-05 12:29N 37°47' W 122°15'0 0.0
2018-Feb-05 11:59N 37°47' W 122°15'0 0.0
2018-Feb-05 11:29N 37°47' W 122°15'0 0.0
2018-Feb-05 10:59N 37°47' W 122°15'0 0.0
2018-Feb-05 10:29N 37°47' W 122°15'0 0.0
2018-Feb-05 10:00N 37°47' W 122°15'0 0.0
2018-Feb-05 09:30N 37°47' W 122°15'0 0.0
2018-Feb-05 09:00N 37°47' W 122°15'0 0.0
2018-Feb-05 08:30N 37°47' W 122°15'0 0.0
2018-Feb-05 08:00N 37°47' W 122°15'0 0.0
2018-Feb-05 07:30N 37°47' W 122°15'0 0.0
2018-Feb-05 07:00N 37°47' W 122°15'0 0.0
2018-Feb-05 06:30N 37°47' W 122°15'0 0.0
2018-Feb-05 05:30N 37°47' W 122°15'0 0.0
2018-Feb-05 05:00N 37°47' W 122°15'0 0.0
2018-Feb-05 04:30N 37°47' W 122°15'0 0.0
2018-Feb-05 04:00N 37°47' W 122°15'0 0.0
2018-Feb-05 03:30N 37°47' W 122°15'0 0.0
2018-Feb-05 02:59N 37°47' W 122°15'0 0.0
2018-Feb-05 02:29N 37°47' W 122°15'0 0.0
2018-Feb-05 01:59N 37°47' W 122°15'0 0.0
2018-Feb-05 01:30N 37°47' W 122°15'0 0.0
2018-Feb-05 01:00N 37°47' W 122°15'0 0.0
2018-Feb-05 00:30N 37°47' W 122°15'0 0.0
2018-Feb-05 00:00N 37°47' W 122°15'0 0.0
2018-Feb-04 23:30N 37°47' W 122°15'0 0.0
2018-Feb-04 23:00N 37°47' W 122°15'0 0.0
2018-Feb-04 22:30N 37°47' W 122°15'0 0.0
2018-Feb-04 22:00N 37°47' W 122°15'0 0.0
2018-Feb-04 21:30N 37°47' W 122°15'0 0.0
2018-Feb-04 21:00N 37°47' W 122°15'0 0.0
2018-Feb-04 19:59N 37°47' W 122°15'0 0.0
2018-Feb-04 19:29N 37°47' W 122°15'0 0.0
2018-Feb-04 18:59N 37°47' W 122°15'0 0.0
2018-Feb-04 18:29N 37°47' W 122°15'0 0.0
2018-Feb-04 17:59N 37°47' W 122°15'0 0.0
2018-Feb-04 17:29N 37°47' W 122°15'0 0.0
2018-Feb-04 15:30N 37°47' W 122°15'0 0.0
2018-Feb-04 15:00N 37°47' W 122°15'0 0.0
2018-Feb-04 14:30N 37°47' W 122°15'0 0.0
2018-Feb-04 14:00N 37°47' W 122°15'0 0.0
2018-Feb-04 13:30N 37°47' W 122°15'0 0.0
2018-Feb-04 13:00N 37°47' W 122°15'0 0.0
2018-Feb-04 12:30N 37°47' W 122°15'0 0.0
2018-Feb-04 12:00N 37°47' W 122°15'0 0.0
2018-Feb-04 11:30N 37°47' W 122°15'0 0.0
2018-Feb-04 09:59N 37°47' W 122°15'0 0.0
2018-Feb-04 09:00N 37°47' W 122°15'0 0.0
2018-Feb-04 08:30N 37°47' W 122°15'0 0.0
2018-Feb-04 08:00N 37°47' W 122°15'0 0.0
2018-Feb-04 07:30N 37°47' W 122°15'0 0.0
2018-Feb-04 07:00N 37°47' W 122°15'0 0.0
2018-Feb-04 06:30N 37°47' W 122°15'0 0.0
2018-Feb-04 06:00N 37°47' W 122°15'0 0.0
2018-Feb-04 05:30N 37°47' W 122°15'0 0.0
2018-Feb-04 04:59N 37°47' W 122°15'0 0.0
2018-Feb-04 04:29N 37°47' W 122°15'0 0.0
2018-Feb-04 03:59N 37°47' W 122°15'0 0.0
2018-Feb-04 03:30N 37°47' W 122°15'0 0.0
2018-Feb-04 03:00N 37°47' W 122°15'0 0.0
2018-Feb-04 02:30N 37°47' W 122°15'0 0.0
2018-Feb-04 02:00N 37°47' W 122°15'0 0.0
2018-Feb-04 01:30N 37°47' W 122°15'0 0.0
2018-Feb-04 01:00N 37°47' W 122°15'0 0.0
2018-Feb-04 00:30N 37°47' W 122°15'0 0.0
2018-Feb-04 00:00N 37°47' W 122°15'0 0.0
2018-Feb-03 23:30N 37°47' W 122°15'0 0.0
2018-Feb-03 23:00N 37°47' W 122°15'0 0.0
2018-Feb-03 22:30N 37°47' W 122°15'0 0.0
2018-Feb-03 22:00N 37°47' W 122°15'0 0.0
2018-Feb-03 21:29N 37°47' W 122°15'0 0.0
2018-Feb-03 20:59N 37°47' W 122°15'0 0.0
2018-Feb-03 20:29N 37°47' W 122°15'0 0.0
2018-Feb-03 20:00N 37°47' W 122°15'0 0.0
2018-Feb-03 18:30N 37°47' W 122°15'0 0.0
2018-Feb-03 18:00N 37°47' W 122°15'0 0.0
2018-Feb-03 17:30N 37°47' W 122°15'0 0.0
2018-Feb-03 17:00N 37°47' W 122°15'0 0.0
2018-Feb-03 16:00N 37°47' W 122°15'0 0.0
2018-Feb-03 15:30N 37°47' W 122°15'0 0.0
2018-Feb-03 15:00N 37°47' W 122°15'0 0.0
2018-Feb-03 14:30N 37°47' W 122°15'0 0.0
2018-Feb-03 14:00N 37°47' W 122°15'0 0.0
2018-Feb-03 13:30N 37°47' W 122°15'0 0.0
2018-Feb-03 13:00N 37°47' W 122°15'0 0.0
2018-Feb-03 12:30N 37°47' W 122°15'0 0.0
2018-Feb-03 12:00N 37°47' W 122°15'0 0.0
2018-Feb-03 11:29N 37°47' W 122°15'0 0.0
2018-Feb-03 11:00N 37°47' W 122°15'0 0.0
2018-Feb-03 10:30N 37°47' W 122°15'0 0.0
2018-Feb-03 10:00N 37°47' W 122°15'0 0.0
2018-Feb-03 09:30N 37°47' W 122°15'0 0.0
2018-Feb-03 09:00N 37°47' W 122°15'0 0.0
2018-Feb-03 08:30N 37°47' W 122°15'0 0.0
2018-Feb-03 08:00N 37°47' W 122°15'0 0.0
2018-Feb-03 06:30N 37°47' W 122°15'0 0.0
2018-Feb-03 06:00N 37°47' W 122°15'0 0.0
2018-Feb-03 05:27N 37°47' W 122°15'0 0.0
2018-Feb-03 04:59N 37°47' W 122°15'0 0.0
2018-Feb-03 03:59N 37°47' W 122°15'0 0.0
2018-Feb-03 03:29N 37°47' W 122°15'0 0.0
2018-Feb-03 02:00N 37°47' W 122°15'0 0.0
2018-Feb-03 01:30N 37°47' W 122°15'0 0.0
2018-Feb-03 01:00N 37°47' W 122°15'0 0.0
2018-Feb-03 00:30N 37°47' W 122°15'0 0.0
2018-Feb-03 00:00N 37°47' W 122°15'0 0.0
2018-Feb-02 23:30N 37°47' W 122°15'0 0.0
2018-Feb-02 23:00N 37°47' W 122°15'0 0.0
2018-Feb-02 22:30N 37°47' W 122°15'0 0.0
2018-Feb-02 22:00N 37°47' W 122°15'0 0.0
2018-Feb-02 21:30N 37°47' W 122°15'0 0.0
2018-Feb-02 21:00N 37°47' W 122°15'0 0.0
2018-Feb-02 20:29N 37°47' W 122°15'0 0.0
2018-Feb-02 19:59N 37°47' W 122°15'0 0.0
2018-Feb-02 19:00N 37°47' W 122°15'0 0.0
2018-Feb-02 18:30N 37°47' W 122°15'0 0.0
2018-Feb-02 18:00N 37°47' W 122°15'0 0.0
2018-Feb-02 17:30N 37°47' W 122°15'0 0.0
2018-Feb-02 17:00N 37°47' W 122°15'0 0.0
2018-Feb-02 16:30N 37°47' W 122°15'0 0.0
2018-Feb-02 15:30N 37°47' W 122°15'0 0.0
2018-Feb-02 14:30N 37°47' W 122°15'0 0.0
2018-Feb-02 14:00N 37°47' W 122°15'0 0.0
2018-Feb-02 13:30N 37°47' W 122°15'0 0.0
2018-Feb-02 13:00N 37°47' W 122°15'0 0.0
2018-Feb-02 12:30N 37°47' W 122°15'0 0.0
2018-Feb-02 12:00N 37°47' W 122°15'0 0.0
2018-Feb-02 11:30N 37°47' W 122°15'0 0.0
2018-Feb-02 10:59N 37°47' W 122°15'0 0.0
2018-Feb-02 10:29N 37°47' W 122°15'0 0.0
2018-Feb-02 09:59N 37°47' W 122°15'0 0.0
2018-Feb-02 09:29N 37°47' W 122°15'0 0.0
2018-Feb-02 09:00N 37°47' W 122°15'0 0.0
2018-Feb-02 08:27N 37°47' W 122°15'0 0.0
2018-Feb-02 08:00N 37°47' W 122°15'0 0.0
2018-Feb-02 07:30N 37°47' W 122°15'0 0.0
2018-Feb-02 07:00N 37°47' W 122°15'0 0.0
2018-Feb-02 06:30N 37°47' W 122°15'0 0.0
2018-Feb-02 06:00N 37°47' W 122°15'0 0.0
2018-Feb-02 05:30N 37°47' W 122°15'0 0.0
2018-Feb-02 05:00N 37°47' W 122°15'0 0.0
2018-Feb-02 04:30N 37°47' W 122°15'0 0.0
2018-Feb-02 04:00N 37°47' W 122°15'0 0.0
2018-Feb-02 03:30N 37°47' W 122°15'0 0.0
2018-Feb-02 03:00N 37°47' W 122°15'0 0.0
2018-Feb-02 02:29N 37°47' W 122°15'0 0.0
2018-Feb-02 01:59N 37°47' W 122°15'0 0.0
2018-Feb-02 01:29N 37°47' W 122°15'0 0.0
2018-Feb-02 01:00N 37°47' W 122°15'0 0.0
2018-Feb-02 00:30N 37°47' W 122°15'0 0.0
2018-Feb-02 00:00N 37°47' W 122°15'0 0.0
2018-Feb-01 23:30N 37°47' W 122°15'0 0.0
2018-Feb-01 23:00N 37°47' W 122°15'0 0.0
2018-Feb-01 21:59N 37°47' W 122°15'0 0.0
2018-Feb-01 21:29N 37°47' W 122°15'0 0.0
2018-Feb-01 19:28N 37°47' W 122°15'0 0.0
2018-Feb-01 18:58N 37°47' W 122°15'0 0.0
2018-Feb-01 18:28N 37°47' W 122°15'0 0.0
2018-Feb-01 17:58N 37°47' W 122°15'0 0.0
2018-Feb-01 17:28N 37°47' W 122°15'0 0.0
2018-Jan-31 18:41N 37°47' W 122°15'0 0.0
2018-Jan-31 17:35N 37°47' W 122°15'0 0.0
2018-Jan-31 17:29N 37°47' W 122°15'  
Track history (hours):
 
Tides and Currents Weather Stations Pressure Air Temp Water Temp Dewpoint Dewpoint Depression Visibility Wind Speed Wind Dir Waves Ship Positions

CG Stratton

Last reported at 2018-Feb-08 02:00 UTC. Time now 2018-Feb-22 17:12 UTC.
Position N 32°47' W 117°29'.
Warning: this ship's position is 14 days out of date.

Length 140 m; draft 6.8 m.

Type: Law enforcement. MMSI: 368798000.

Date/timePositionNaut miles runAvg speedWind from/ knotsBaromVisibWave heightAir tempDewpointWater temp
2018-Feb-08 02:00N 32°47' W 117°29'510.8
2018-Feb-08 01:31N 32°42' W 117°32'4 7.4
2018-Feb-08 01:00N 32°39' W 117°29'2 3.8
2018-Feb-08 00:30N 32°39' W 117°27'1 1.0
2018-Feb-08 00:00N 32°39' W 117°27'0 0.9
2018-Feb-07 23:30N 32°40' W 117°27'0 0.8
2018-Feb-07 23:00N 32°40' W 117°27'3 6.9
2018-Feb-07 22:31N 32°39' W 117°31'1121.1
2018-Feb-07 22:00N 32°40' W 117°44'1020.8
2018-Feb-07 21:31N 32°41' W 117°56'12 1.0
2018-Feb-07 09:29N 32°48' W 118°08'2 4.1
2018-Feb-07 09:00N 32°50' W 118°08'2 4.9
2018-Feb-07 08:30N 32°52' W 118°07'611.9
2018-Feb-07 08:00N 32°58' W 118°05'815.9
2018-Feb-07 07:31N 33°06' W 118°04'1615.6
2018-Feb-07 06:30N 33°21' W 118°10'814.5
2018-Feb-07 05:59N 33°28' W 118°11'4 6.6
2018-Feb-07 05:25N 33°31' W 118°13'717.0
2018-Feb-07 05:00N 33°32' W 118°21'815.7
2018-Feb-07 04:30N 33°34' W 118°30'4 8.4
2018-Feb-07 03:59N 33°37' W 118°34'4 9.0
2018-Feb-07 03:30N 33°38' W 118°39'4 9.2
2018-Feb-07 03:00N 33°41' W 118°44'3 5.5
2018-Feb-07 02:30N 33°39' W 118°41'611.2
2018-Feb-07 01:58N 33°38' W 118°34'511.1
2018-Feb-07 01:29N 33°36' W 118°28'4 7.6
2018-Feb-07 00:57N 33°35' W 118°23'3 5.6
2018-Feb-07 00:29N 33°34' W 118°21'3 5.8
2018-Feb-06 23:59N 33°33' W 118°17'1 2.3
2018-Feb-06 23:29N 33°33' W 118°19'1 1.5
2018-Feb-06 23:00N 33°34' W 118°18'2 2.9
2018-Feb-06 22:25N 33°32' W 118°18'1 2.2
2018-Feb-06 22:00N 33°31' W 118°18'610.6
2018-Feb-06 21:28N 33°35' W 118°23'1021.3
2018-Feb-06 21:00N 33°38' W 118°35'1021.0
2018-Feb-06 20:30N 33°42' W 118°46'1021.0
2018-Feb-06 20:00N 33°47' W 118°57'1019.4
2018-Feb-06 19:30N 33°52' W 119°07'3 5.7
2018-Feb-06 19:00N 33°54' W 119°04'2 1.4
2018-Feb-06 17:30N 33°53' W 119°07'1 2.3
2018-Feb-06 17:00N 33°54' W 119°07'7 7.3
2018-Feb-06 16:00N 33°60' W 119°13'815.9
2018-Feb-06 15:30N 34°02' W 119°22'816.3
2018-Feb-06 15:00N 34°05' W 119°31'816.0
2018-Feb-06 14:30N 34°07' W 119°41'816.4
2018-Feb-06 14:00N 34°09' W 119°50'713.0
2018-Feb-06 13:28N 34°12' W 119°57'611.9
2018-Feb-06 13:00N 34°14' W 120°04'612.8
2018-Feb-06 12:30N 34°16' W 120°11'612.7
2018-Feb-06 11:59N 34°17' W 120°19'612.9
2018-Feb-06 11:29N 34°19' W 120°26'713.2
2018-Feb-06 10:58N 34°20' W 120°35'712.9
2018-Feb-06 10:28N 34°22' W 120°42'612.5
2018-Feb-06 09:58N 34°23' W 120°50'511.3
2018-Feb-06 09:30N 34°25' W 120°55'815.5
2018-Feb-06 09:00N 34°31' W 121°02'815.8
2018-Feb-06 08:30N 34°37' W 121°07'1615.8
2018-Feb-06 07:30N 34°51' W 121°18'816.0
2018-Feb-06 07:00N 34°57' W 121°23'15417.4
2018-Feb-05 22:11N 37°12' W 122°55'1 5.8
2018-Feb-05 22:00N 37°11' W 122°55'2214.7
2018-Feb-05 20:30N 37°31' W 122°44'2610.5
2018-Feb-05 18:00N 37°47' W 122°18'2 4.2
2018-Feb-05 17:30N 37°47' W 122°15'0 0.7
2018-Feb-05 17:00N 37°47' W 122°15'0 0.0
2018-Feb-05 16:30N 37°47' W 122°15'0 0.0
2018-Feb-05 15:54N 37°47' W 122°15'0 0.0
2018-Feb-05 15:30N 37°47' W 122°15'0 0.0
2018-Feb-05 15:00N 37°47' W 122°15'0 0.0
2018-Feb-05 14:30N 37°47' W 122°15'0 0.0
2018-Feb-05 14:00N 37°47' W 122°15'0 0.0
2018-Feb-05 13:30N 37°47' W 122°15'0 0.0
2018-Feb-05 13:00N 37°47' W 122°15'0 0.0
2018-Feb-05 12:29N 37°47' W 122°15'0 0.0
2018-Feb-05 11:59N 37°47' W 122°15'0 0.0
2018-Feb-05 11:29N 37°47' W 122°15'0 0.0
2018-Feb-05 10:59N 37°47' W 122°15'0 0.0
2018-Feb-05 10:29N 37°47' W 122°15'0 0.0
2018-Feb-05 10:00N 37°47' W 122°15'0 0.0
2018-Feb-05 09:30N 37°47' W 122°15'0 0.0
2018-Feb-05 09:00N 37°47' W 122°15'0 0.0
2018-Feb-05 08:30N 37°47' W 122°15'0 0.0
2018-Feb-05 08:00N 37°47' W 122°15'0 0.0
2018-Feb-05 07:30N 37°47' W 122°15'0 0.0
2018-Feb-05 07:00N 37°47' W 122°15'0 0.0
2018-Feb-05 06:30N 37°47' W 122°15'0 0.0
2018-Feb-05 05:30N 37°47' W 122°15'0 0.0
2018-Feb-05 05:00N 37°47' W 122°15'0 0.0
2018-Feb-05 04:30N 37°47' W 122°15'0 0.0
2018-Feb-05 04:00N 37°47' W 122°15'0 0.0
2018-Feb-05 03:30N 37°47' W 122°15'0 0.0
2018-Feb-05 02:59N 37°47' W 122°15'0 0.0
2018-Feb-05 02:29N 37°47' W 122°15'0 0.0
2018-Feb-05 01:59N 37°47' W 122°15'0 0.0
2018-Feb-05 01:30N 37°47' W 122°15'0 0.0
2018-Feb-05 01:00N 37°47' W 122°15'0 0.0
2018-Feb-05 00:30N 37°47' W 122°15'0 0.0
2018-Feb-05 00:00N 37°47' W 122°15'0 0.0
2018-Feb-04 23:30N 37°47' W 122°15'0 0.0
2018-Feb-04 23:00N 37°47' W 122°15'0 0.0
2018-Feb-04 22:30N 37°47' W 122°15'0 0.0
2018-Feb-04 22:00N 37°47' W 122°15'0 0.0
2018-Feb-04 21:30N 37°47' W 122°15'0 0.0
2018-Feb-04 21:00N 37°47' W 122°15'0 0.0
2018-Feb-04 19:59N 37°47' W 122°15'0 0.0
2018-Feb-04 19:29N 37°47' W 122°15'0 0.0
2018-Feb-04 18:59N 37°47' W 122°15'0 0.0
2018-Feb-04 18:29N 37°47' W 122°15'0 0.0
2018-Feb-04 17:59N 37°47' W 122°15'0 0.0
2018-Feb-04 17:29N 37°47' W 122°15'0 0.0
2018-Feb-04 15:30N 37°47' W 122°15'0 0.0
2018-Feb-04 15:00N 37°47' W 122°15'0 0.0
2018-Feb-04 14:30N 37°47' W 122°15'0 0.0
2018-Feb-04 14:00N 37°47' W 122°15'0 0.0
2018-Feb-04 13:30N 37°47' W 122°15'0 0.0
2018-Feb-04 13:00N 37°47' W 122°15'0 0.0
2018-Feb-04 12:30N 37°47' W 122°15'0 0.0
2018-Feb-04 12:00N 37°47' W 122°15'0 0.0
2018-Feb-04 11:30N 37°47' W 122°15'0 0.0
2018-Feb-04 09:59N 37°47' W 122°15'0 0.0
2018-Feb-04 09:00N 37°47' W 122°15'0 0.0
2018-Feb-04 08:30N 37°47' W 122°15'0 0.0
2018-Feb-04 08:00N 37°47' W 122°15'0 0.0
2018-Feb-04 07:30N 37°47' W 122°15'0 0.0
2018-Feb-04 07:00N 37°47' W 122°15'0 0.0
2018-Feb-04 06:30N 37°47' W 122°15'0 0.0
2018-Feb-04 06:00N 37°47' W 122°15'0 0.0
2018-Feb-04 05:30N 37°47' W 122°15'0 0.0
2018-Feb-04 04:59N 37°47' W 122°15'0 0.0
2018-Feb-04 04:29N 37°47' W 122°15'0 0.0
2018-Feb-04 03:59N 37°47' W 122°15'0 0.0
2018-Feb-04 03:30N 37°47' W 122°15'0 0.0
2018-Feb-04 03:00N 37°47' W 122°15'0 0.0
2018-Feb-04 02:30N 37°47' W 122°15'0 0.0
2018-Feb-04 02:00N 37°47' W 122°15'0 0.0
2018-Feb-04 01:30N 37°47' W 122°15'0 0.0
2018-Feb-04 01:00N 37°47' W 122°15'0 0.0
2018-Feb-04 00:30N 37°47' W 122°15'0 0.0
2018-Feb-04 00:00N 37°47' W 122°15'0 0.0
2018-Feb-03 23:30N 37°47' W 122°15'0 0.0
2018-Feb-03 23:00N 37°47' W 122°15'0 0.0
2018-Feb-03 22:30N 37°47' W 122°15'0 0.0
2018-Feb-03 22:00N 37°47' W 122°15'0 0.0
2018-Feb-03 21:29N 37°47' W 122°15'0 0.0
2018-Feb-03 20:59N 37°47' W 122°15'0 0.0
2018-Feb-03 20:29N 37°47' W 122°15'0 0.0
2018-Feb-03 20:00N 37°47' W 122°15'0 0.0
2018-Feb-03 18:30N 37°47' W 122°15'0 0.0
2018-Feb-03 18:00N 37°47' W 122°15'0 0.0
2018-Feb-03 17:30N 37°47' W 122°15'0 0.0
2018-Feb-03 17:00N 37°47' W 122°15'0 0.0
2018-Feb-03 16:00N 37°47' W 122°15'0 0.0
2018-Feb-03 15:30N 37°47' W 122°15'0 0.0
2018-Feb-03 15:00N 37°47' W 122°15'0 0.0
2018-Feb-03 14:30N 37°47' W 122°15'0 0.0
2018-Feb-03 14:00N 37°47' W 122°15'0 0.0
2018-Feb-03 13:30N 37°47' W 122°15'0 0.0
2018-Feb-03 13:00N 37°47' W 122°15'0 0.0
2018-Feb-03 12:30N 37°47' W 122°15'0 0.0
2018-Feb-03 12:00N 37°47' W 122°15'0 0.0
2018-Feb-03 11:29N 37°47' W 122°15'0 0.0
2018-Feb-03 11:00N 37°47' W 122°15'0 0.0
2018-Feb-03 10:30N 37°47' W 122°15'0 0.0
2018-Feb-03 10:00N 37°47' W 122°15'0 0.0
2018-Feb-03 09:30N 37°47' W 122°15'0 0.0
2018-Feb-03 09:00N 37°47' W 122°15'0 0.0
2018-Feb-03 08:30N 37°47' W 122°15'0 0.0
2018-Feb-03 08:00N 37°47' W 122°15'0 0.0
2018-Feb-03 06:30N 37°47' W 122°15'0 0.0
2018-Feb-03 06:00N 37°47' W 122°15'0 0.0
2018-Feb-03 05:27N 37°47' W 122°15'0 0.0
2018-Feb-03 04:59N 37°47' W 122°15'0 0.0
2018-Feb-03 03:59N 37°47' W 122°15'0 0.0
2018-Feb-03 03:29N 37°47' W 122°15'0 0.0
2018-Feb-03 02:00N 37°47' W 122°15'0 0.0
2018-Feb-03 01:30N 37°47' W 122°15'0 0.0
2018-Feb-03 01:00N 37°47' W 122°15'0 0.0
2018-Feb-03 00:30N 37°47' W 122°15'0 0.0
2018-Feb-03 00:00N 37°47' W 122°15'0 0.0
2018-Feb-02 23:30N 37°47' W 122°15'0 0.0
2018-Feb-02 23:00N 37°47' W 122°15'0 0.0
2018-Feb-02 22:30N 37°47' W 122°15'0 0.0
2018-Feb-02 22:00N 37°47' W 122°15'0 0.0
2018-Feb-02 21:30N 37°47' W 122°15'0 0.0
2018-Feb-02 21:00N 37°47' W 122°15'0 0.0
2018-Feb-02 20:29N 37°47' W 122°15'0 0.0
2018-Feb-02 19:59N 37°47' W 122°15'0 0.0
2018-Feb-02 19:00N 37°47' W 122°15'0 0.0
2018-Feb-02 18:30N 37°47' W 122°15'0 0.0
2018-Feb-02 18:00N 37°47' W 122°15'0 0.0
2018-Feb-02 17:30N 37°47' W 122°15'0 0.0
2018-Feb-02 17:00N 37°47' W 122°15'0 0.0
2018-Feb-02 16:30N 37°47' W 122°15'0 0.0
2018-Feb-02 15:30N 37°47' W 122°15'0 0.0
2018-Feb-02 14:30N 37°47' W 122°15'0 0.0
2018-Feb-02 14:00N 37°47' W 122°15'0 0.0
2018-Feb-02 13:30N 37°47' W 122°15'0 0.0
2018-Feb-02 13:00N 37°47' W 122°15'0 0.0
2018-Feb-02 12:30N 37°47' W 122°15'0 0.0
2018-Feb-02 12:00N 37°47' W 122°15'0 0.0
2018-Feb-02 11:30N 37°47' W 122°15'0 0.0
2018-Feb-02 10:59N 37°47' W 122°15'0 0.0
2018-Feb-02 10:29N 37°47' W 122°15'0 0.0
2018-Feb-02 09:59N 37°47' W 122°15'0 0.0
2018-Feb-02 09:29N 37°47' W 122°15'0 0.0
2018-Feb-02 09:00N 37°47' W 122°15'0 0.0
2018-Feb-02 08:27N 37°47' W 122°15'0 0.0
2018-Feb-02 08:00N 37°47' W 122°15'0 0.0
2018-Feb-02 07:30N 37°47' W 122°15'0 0.0
2018-Feb-02 07:00N 37°47' W 122°15'0 0.0
2018-Feb-02 06:30N 37°47' W 122°15'0 0.0
2018-Feb-02 06:00N 37°47' W 122°15'0 0.0
2018-Feb-02 05:30N 37°47' W 122°15'0 0.0
2018-Feb-02 05:00N 37°47' W 122°15'0 0.0
2018-Feb-02 04:30N 37°47' W 122°15'0 0.0
2018-Feb-02 04:00N 37°47' W 122°15'0 0.0
2018-Feb-02 03:30N 37°47' W 122°15'0 0.0
2018-Feb-02 03:00N 37°47' W 122°15'0 0.0
2018-Feb-02 02:29N 37°47' W 122°15'0 0.0
2018-Feb-02 01:59N 37°47' W 122°15'0 0.0
2018-Feb-02 01:29N 37°47' W 122°15'0 0.0
2018-Feb-02 01:00N 37°47' W 122°15'0 0.0
2018-Feb-02 00:30N 37°47' W 122°15'0 0.0
2018-Feb-02 00:00N 37°47' W 122°15'0 0.0
2018-Feb-01 23:30N 37°47' W 122°15'0 0.0
2018-Feb-01 23:00N 37°47' W 122°15'0 0.0
2018-Feb-01 21:59N 37°47' W 122°15'0 0.0
2018-Feb-01 21:29N 37°47' W 122°15'0 0.0
2018-Feb-01 19:28N 37°47' W 122°15'0 0.0
2018-Feb-01 18:58N 37°47' W 122°15'0 0.0
2018-Feb-01 18:28N 37°47' W 122°15'0 0.0
2018-Feb-01 17:58N 37°47' W 122°15'0 0.0
2018-Feb-01 17:28N 37°47' W 122°15'0 0.0
2018-Jan-31 18:41N 37°47' W 122°15'0 0.0
2018-Jan-31 17:35N 37°47' W 122°15'0 0.0
2018-Jan-31 17:29N 37°47' W 122°15'  

Dump ship's entire track history